createdAt,value
2018-03-18T00:00:02.832Z,6.32
2018-03-18T00:02:31.572Z,7.10
2018-03-18T00:05:00.632Z,6.50
2018-03-18T00:07:28.907Z,5.50
2018-03-18T00:09:57.173Z,6.50
2018-03-18T00:12:25.452Z,5.87
2018-03-18T00:14:53.720Z,6.13
2018-03-18T00:17:21.980Z,6.27
2018-03-18T00:19:50.288Z,6.00
2018-03-18T00:22:18.555Z,6.17
2018-03-18T00:24:46.840Z,5.80
2018-03-18T00:27:15.110Z,5.53
2018-03-18T00:29:43.396Z,6.60
2018-03-18T00:32:11.686Z,6.93
2018-03-18T00:34:39.955Z,6.33
2018-03-18T00:37:08.237Z,6.87
2018-03-18T00:39:36.496Z,7.50
2018-03-18T00:42:04.780Z,6.97
2018-03-18T00:44:33.048Z,5.70
2018-03-18T00:47:01.318Z,6.23
2018-03-18T00:49:29.600Z,6.60
2018-03-18T00:52:01.639Z,6.40
2018-03-18T00:54:30.001Z,5.47
2018-03-18T00:56:58.259Z,6.03
2018-03-18T00:59:27.292Z,6.30
2018-03-18T01:01:55.571Z,5.90
2018-03-18T01:04:23.839Z,5.40
2018-03-18T01:06:52.104Z,5.77
2018-03-18T01:09:20.377Z,5.00
2018-03-18T01:11:48.641Z,4.77
2018-03-18T01:14:16.915Z,6.03
2018-03-18T01:16:45.227Z,6.20
2018-03-18T01:19:13.498Z,5.20
2018-03-18T01:21:41.776Z,5.70
2018-03-18T01:24:10.132Z,5.43
2018-03-18T01:26:38.427Z,5.57
2018-03-18T01:29:06.689Z,6.37
2018-03-18T01:31:34.979Z,5.10
2018-03-18T01:34:03.256Z,5.70
2018-03-18T01:36:31.568Z,5.33
2018-03-18T01:38:59.852Z,5.80
2018-03-18T01:41:28.889Z,5.80
2018-03-18T01:43:57.167Z,5.40
2018-03-18T01:46:25.455Z,5.20
2018-03-18T01:48:53.728Z,5.10
2018-03-18T01:51:21.995Z,5.80
2018-03-18T01:53:50.292Z,5.93
2018-03-18T01:56:18.551Z,5.50
2018-03-18T01:58:46.821Z,6.10
2018-03-18T02:01:15.097Z,5.37
2018-03-18T02:03:43.361Z,4.80
2018-03-18T02:06:11.645Z,5.80
2018-03-18T02:08:39.921Z,5.10
2018-03-18T02:11:08.195Z,6.60
2018-03-18T02:13:36.480Z,5.80
2018-03-18T02:16:04.732Z,5.40
2018-03-18T02:18:33.785Z,5.93
2018-03-18T02:21:02.127Z,6.37
2018-03-18T02:23:31.630Z,5.37
2018-03-18T02:25:59.891Z,5.23
2018-03-18T02:28:28.172Z,6.40
2018-03-18T02:30:56.448Z,5.47
2018-03-18T02:33:24.727Z,5.70
2018-03-18T02:35:53.001Z,5.50
2018-03-18T02:38:21.273Z,5.30
2018-03-18T02:40:49.661Z,5.83
2018-03-18T02:43:17.824Z,5.13
2018-03-18T02:45:46.096Z,5.67
2018-03-18T02:48:15.144Z,5.20
2018-03-18T02:50:43.407Z,5.50
2018-03-18T02:53:11.688Z,5.20
2018-03-18T02:55:39.973Z,4.90
2018-03-18T02:58:08.236Z,5.47
2018-03-18T03:00:36.590Z,4.70
2018-03-18T03:03:04.872Z,4.77
2018-03-18T03:05:33.128Z,4.83
2018-03-18T03:08:01.412Z,5.20
2018-03-18T03:10:29.700Z,6.00
2018-03-18T03:12:57.980Z,4.87
2018-03-18T03:15:26.238Z,6.00
2018-03-18T03:17:54.509Z,5.53
2018-03-18T03:20:22.788Z,5.70
2018-03-18T03:22:51.115Z,5.40
2018-03-18T03:25:20.164Z,5.50
2018-03-18T03:27:48.460Z,5.00
2018-03-18T03:30:17.494Z,4.80
2018-03-18T03:32:46.541Z,5.10
2018-03-18T03:35:14.827Z,5.30
2018-03-18T03:37:43.092Z,5.40
2018-03-18T03:40:11.371Z,5.67
2018-03-18T03:42:39.631Z,5.27
2018-03-18T03:45:07.906Z,5.50
2018-03-18T03:47:36.182Z,5.53
2018-03-18T03:50:04.468Z,5.27
2018-03-18T03:52:32.724Z,5.20
2018-03-18T03:55:01.016Z,4.93
2018-03-18T03:57:29.299Z,5.30
2018-03-18T03:59:57.570Z,5.33
2018-03-18T04:02:25.849Z,4.60
2018-03-18T04:04:54.155Z,5.17
2018-03-18T04:07:22.426Z,5.40
2018-03-18T04:09:50.698Z,4.73
2018-03-18T04:12:18.961Z,5.40
2018-03-18T04:14:47.235Z,6.00
2018-03-18T04:17:15.669Z,4.67
2018-03-18T04:19:43.951Z,4.77
2018-03-18T04:22:12.980Z,5.40
2018-03-18T04:24:41.243Z,4.90
2018-03-18T04:27:09.567Z,4.77
2018-03-18T04:29:37.837Z,5.07
2018-03-18T04:32:06.127Z,5.30
2018-03-18T04:34:34.402Z,5.17
2018-03-18T04:37:02.672Z,5.20
2018-03-18T04:39:30.960Z,5.10
2018-03-18T04:41:59.220Z,5.00
2018-03-18T04:44:27.495Z,5.50
2018-03-18T04:46:55.840Z,5.70
2018-03-18T04:49:24.102Z,5.43
2018-03-18T04:51:52.368Z,5.20
2018-03-18T04:54:21.485Z,5.13
2018-03-18T04:56:49.772Z,5.13
2018-03-18T04:59:18.069Z,4.57
2018-03-18T05:01:46.320Z,4.87
2018-03-18T05:04:14.600Z,4.87
2018-03-18T05:06:42.865Z,5.30
2018-03-18T05:09:11.148Z,4.30
2018-03-18T05:11:39.442Z,4.47
2018-03-18T05:14:07.721Z,4.90
2018-03-18T05:16:35.981Z,4.73
2018-03-18T05:19:04.276Z,4.90
2018-03-18T05:21:32.549Z,4.67
2018-03-18T05:24:00.804Z,4.90
2018-03-18T05:26:29.087Z,5.03
2018-03-18T05:28:57.363Z,5.07
2018-03-18T05:31:25.619Z,4.03
2018-03-18T05:33:53.919Z,4.57
2018-03-18T05:36:22.195Z,5.13
2018-03-18T05:38:50.470Z,5.13
2018-03-18T05:41:18.749Z,5.00
2018-03-18T05:43:47.015Z,4.80
2018-03-18T05:46:15.278Z,4.40
2018-03-18T05:48:43.561Z,4.50
2018-03-18T05:51:11.829Z,4.60
2018-03-18T05:53:40.097Z,5.03
2018-03-18T05:56:08.378Z,4.43
2018-03-18T05:58:36.647Z,4.97
2018-03-18T06:01:05.679Z,5.07
2018-03-18T06:03:33.986Z,4.70
2018-03-18T06:06:02.256Z,5.00
2018-03-18T06:08:30.528Z,4.60
2018-03-18T06:10:58.817Z,4.83
2018-03-18T06:13:27.084Z,5.17
2018-03-18T06:15:55.352Z,4.93
2018-03-18T06:18:23.655Z,4.80
2018-03-18T06:20:52.690Z,4.83
2018-03-18T06:23:20.990Z,5.03
2018-03-18T06:25:49.275Z,4.60
2018-03-18T06:28:17.544Z,4.60
2018-03-18T06:30:45.831Z,5.00
2018-03-18T06:33:14.093Z,4.70
2018-03-18T06:35:42.373Z,4.60
2018-03-18T06:38:10.636Z,5.17
2018-03-18T06:40:38.905Z,5.60
2018-03-18T06:43:07.188Z,4.73
2018-03-18T06:45:35.555Z,5.07
2018-03-18T06:48:03.819Z,5.20
2018-03-18T06:50:32.106Z,4.23
2018-03-18T06:53:00.404Z,4.77
2018-03-18T06:55:28.686Z,4.43
2018-03-18T06:57:56.995Z,4.97
2018-03-18T07:00:26.051Z,4.50
2018-03-18T07:02:54.323Z,5.03
2018-03-18T07:05:22.611Z,5.95
2018-03-18T07:07:50.855Z,4.60
2018-03-18T07:10:19.132Z,3.87
2018-03-18T07:12:47.387Z,3.90
2018-03-18T07:15:16.415Z,4.40
2018-03-18T07:17:44.720Z,4.50
2018-03-18T07:20:12.980Z,4.77
2018-03-18T07:22:41.243Z,5.20
2018-03-18T07:25:09.531Z,5.00
2018-03-18T07:27:37.805Z,4.60
2018-03-18T07:30:06.087Z,5.00
2018-03-18T07:32:34.368Z,4.30
2018-03-18T07:35:02.635Z,5.20
2018-03-18T07:37:30.917Z,4.70
2018-03-18T07:39:59.195Z,4.13
2018-03-18T07:42:27.549Z,5.13
2018-03-18T07:44:55.811Z,4.17
2018-03-18T07:47:24.093Z,5.00
2018-03-18T07:49:52.351Z,4.93
2018-03-18T07:52:20.616Z,4.77
2018-03-18T07:54:49.669Z,4.10
2018-03-18T07:57:17.934Z,4.50
2018-03-18T07:59:46.191Z,5.40
2018-03-18T08:02:14.467Z,4.60
2018-03-18T08:04:42.736Z,4.67
2018-03-18T08:07:11.002Z,4.20
2018-03-18T08:09:40.040Z,4.07
2018-03-18T08:12:08.305Z,4.50
2018-03-18T08:14:36.567Z,4.18
2018-03-18T08:17:04.839Z,4.00
2018-03-18T08:19:33.106Z,4.60
2018-03-18T08:22:01.375Z,4.00
2018-03-18T08:24:29.651Z,3.90
2018-03-18T08:26:57.908Z,3.60
2018-03-18T08:29:26.963Z,4.67
2018-03-18T08:31:55.239Z,3.60
2018-03-18T08:34:23.499Z,4.03
2018-03-18T08:36:51.784Z,3.83
2018-03-18T08:39:20.065Z,4.53
2018-03-18T08:41:48.353Z,4.20
2018-03-18T08:44:16.621Z,3.63
2018-03-18T08:46:44.912Z,4.57
2018-03-18T08:49:13.172Z,3.40
2018-03-18T08:51:41.435Z,3.70
2018-03-18T08:54:09.727Z,3.70
2018-03-18T08:56:38.253Z,4.13
2018-03-18T08:59:07.288Z,4.30
2018-03-18T09:01:35.543Z,3.67
2018-03-18T09:04:03.824Z,4.47
2018-03-18T09:06:32.103Z,3.57
2018-03-18T09:09:00.386Z,3.77
2018-03-18T09:11:28.644Z,3.30
2018-03-18T09:13:56.929Z,3.90
2018-03-18T09:16:25.184Z,3.20
2018-03-18T09:18:55.332Z,3.78
2018-03-18T09:21:23.637Z,3.10
2018-03-18T09:23:51.903Z,3.40
2018-03-18T09:26:20.168Z,3.67
2018-03-18T09:28:48.451Z,4.27
2018-03-18T09:31:16.720Z,3.40
2018-03-18T09:33:45.007Z,2.87
2018-03-18T09:36:13.260Z,3.33
2018-03-18T09:38:41.516Z,2.90
2018-03-18T09:41:10.564Z,3.33
2018-03-18T09:43:38.835Z,3.77
2018-03-18T09:46:07.104Z,3.10
2018-03-18T09:48:35.379Z,3.80
2018-03-18T09:51:03.740Z,3.33
2018-03-18T09:53:32.047Z,3.60
2018-03-18T09:56:01.144Z,2.73
2018-03-18T09:58:29.369Z,3.43
2018-03-18T10:00:58.447Z,2.95
2018-03-18T10:03:27.534Z,3.23
2018-03-18T10:05:56.599Z,4.17
2018-03-18T10:08:24.898Z,3.43
2018-03-18T10:10:53.505Z,3.33
2018-03-18T10:13:21.805Z,3.00
2018-03-18T10:15:50.286Z,3.90
2018-03-18T10:18:18.597Z,2.90
2018-03-18T10:20:46.864Z,3.50
2018-03-18T10:23:15.136Z,4.00
2018-03-18T10:25:43.431Z,3.30
2018-03-18T10:28:11.703Z,3.63
2018-03-18T10:30:40.757Z,3.03
2018-03-18T10:33:09.043Z,3.80
2018-03-18T10:35:37.308Z,3.73
2018-03-18T10:38:05.881Z,3.07
2018-03-18T10:40:34.235Z,3.10
2018-03-18T10:43:03.293Z,3.60
2018-03-18T10:45:31.654Z,3.83
2018-03-18T10:47:59.968Z,3.00
2018-03-18T10:50:28.223Z,3.40
2018-03-18T10:52:56.517Z,3.10
2018-03-18T10:55:24.829Z,3.17
2018-03-18T10:57:53.208Z,3.10
2018-03-18T11:00:22.485Z,2.90
2018-03-18T11:02:51.094Z,2.87
2018-03-18T11:05:19.491Z,2.60
2018-03-18T11:07:47.910Z,3.03
2018-03-18T11:10:17.077Z,3.33
2018-03-18T11:12:46.485Z,3.00
2018-03-18T11:15:16.527Z,3.10
2018-03-18T11:17:45.412Z,3.00
2018-03-18T11:20:16.076Z,3.28
2018-03-18T11:22:46.254Z,3.63
2018-03-18T11:25:15.993Z,2.77
2018-03-18T11:27:45.149Z,2.83
2018-03-18T11:30:16.366Z,2.80
2018-03-18T11:32:46.172Z,2.70
2018-03-18T11:35:16.203Z,3.90
2018-03-18T11:37:46.652Z,2.87
2018-03-18T11:40:17.453Z,3.87
2018-03-18T11:42:47.205Z,3.53
2018-03-18T11:45:17.093Z,3.77
2018-03-18T11:47:46.868Z,2.80
2018-03-18T11:50:17.017Z,2.90
2018-03-18T11:52:47.586Z,2.80
2018-03-18T11:55:18.448Z,2.80
2018-03-18T11:57:48.287Z,3.30
2018-03-18T12:00:18.077Z,2.90
2018-03-18T12:02:47.826Z,2.63
2018-03-18T12:05:18.587Z,3.13
2018-03-18T12:07:48.487Z,3.53
2018-03-18T12:10:19.063Z,3.03
2018-03-18T12:12:48.938Z,2.70
2018-03-18T12:15:18.945Z,2.93
2018-03-18T12:17:49.724Z,3.60
2018-03-18T12:20:19.907Z,2.00
2018-03-18T12:22:49.598Z,2.83
2018-03-18T12:25:20.289Z,2.75
2018-03-18T12:27:50.115Z,2.30
2018-03-18T12:30:20.767Z,2.60
2018-03-18T12:32:51.624Z,3.70
2018-03-18T12:35:21.554Z,2.50
2018-03-18T12:37:51.338Z,2.50
2018-03-18T12:40:34.778Z,2.60
2018-03-18T12:43:22.849Z,2.63
2018-03-18T12:45:52.708Z,2.90
2018-03-18T12:48:22.540Z,2.93
2018-03-18T12:50:53.390Z,3.00
2018-03-18T12:53:22.718Z,3.53
2018-03-18T12:55:52.123Z,2.73
2018-03-18T12:58:21.426Z,2.53
2018-03-18T13:00:50.704Z,2.80
2018-03-18T13:03:20.083Z,2.80
2018-03-18T13:05:49.362Z,2.50
2018-03-18T13:08:18.695Z,2.70
2018-03-18T13:10:47.986Z,2.83
2018-03-18T13:13:18.154Z,2.77
2018-03-18T13:15:47.717Z,2.40
2018-03-18T13:18:17.194Z,2.90
2018-03-18T13:20:47.356Z,2.70
2018-03-18T13:23:16.786Z,2.90
2018-03-18T13:25:46.117Z,2.53
2018-03-18T13:28:15.359Z,2.60
2018-03-18T13:30:44.787Z,2.60
2018-03-18T13:33:14.226Z,2.83
2018-03-18T13:35:43.580Z,2.95
2018-03-18T13:38:12.825Z,2.70
2018-03-18T13:40:43.244Z,2.93
2018-03-18T13:43:12.984Z,3.00
2018-03-18T13:45:43.228Z,1.90
2018-03-18T13:48:12.511Z,3.20
2018-03-18T13:50:42.698Z,3.17
2018-03-18T13:53:12.018Z,2.60
2018-03-18T13:55:42.194Z,3.10
2018-03-18T13:58:11.575Z,2.50
2018-03-18T14:00:41.006Z,2.53
2018-03-18T14:03:10.403Z,3.00
2018-03-18T14:05:40.144Z,2.03
2018-03-18T14:08:10.534Z,2.83
2018-03-18T14:10:40.766Z,2.00
2018-03-18T14:13:10.260Z,2.60
2018-03-18T14:15:39.532Z,3.12
2018-03-18T14:18:08.844Z,2.60
2018-03-18T14:20:38.308Z,2.50
2018-03-18T14:23:08.391Z,2.40
2018-03-18T14:25:37.751Z,2.60
2018-03-18T14:28:07.797Z,2.07
2018-03-18T14:30:37.223Z,2.47
2018-03-18T14:33:06.853Z,3.30
2018-03-18T14:35:37.027Z,1.90
2018-03-18T14:38:06.477Z,2.30
2018-03-18T14:40:36.597Z,2.60
2018-03-18T14:43:05.983Z,2.03
2018-03-18T14:45:35.378Z,2.33
2018-03-18T14:48:05.339Z,1.90
2018-03-18T14:50:35.455Z,2.30
2018-03-18T14:53:06.004Z,2.10
2018-03-18T14:55:35.691Z,2.30
2018-03-18T14:58:06.260Z,2.33
2018-03-18T15:00:35.648Z,2.00
2018-03-18T15:03:04.915Z,2.40
2018-03-18T15:05:35.131Z,3.33
2018-03-18T15:08:04.610Z,1.83
2018-03-18T15:10:34.842Z,2.20
2018-03-18T15:13:04.139Z,2.07
2018-03-18T15:15:33.678Z,1.95
2018-03-18T15:18:03.131Z,1.97
2018-03-18T15:20:32.491Z,1.70
2018-03-18T15:23:01.959Z,2.97
2018-03-18T15:25:31.370Z,2.57
2018-03-18T15:28:01.481Z,1.80
2018-03-18T15:30:30.892Z,2.37
2018-03-18T15:33:00.185Z,1.97
2018-03-18T15:35:29.569Z,2.40
2018-03-18T15:37:59.084Z,2.53
2018-03-18T15:40:28.509Z,1.80
2018-03-18T15:42:58.708Z,1.60
2018-03-18T15:45:28.058Z,1.97
2018-03-18T15:47:57.608Z,2.10
2018-03-18T15:50:26.857Z,1.60
2018-03-18T15:52:57.201Z,2.00
2018-03-18T15:55:26.659Z,2.10
2018-03-18T15:57:57.914Z,1.50
2018-03-18T16:00:28.579Z,2.00
2018-03-18T16:02:58.622Z,2.00
2018-03-18T16:05:28.135Z,1.60
2018-03-18T16:07:59.592Z,1.90
2018-03-18T16:10:29.007Z,2.10
2018-03-18T16:12:58.628Z,1.73
2018-03-18T16:15:27.878Z,1.67
2018-03-18T16:17:57.221Z,1.70
2018-03-18T16:20:27.250Z,1.67
2018-03-18T16:22:57.568Z,1.60
2018-03-18T16:25:27.795Z,2.87
2018-03-18T16:27:57.842Z,1.73
2018-03-18T16:30:44.897Z,2.73
2018-03-18T16:33:14.181Z,1.83
2018-03-18T16:35:45.225Z,2.30
2018-03-18T16:38:15.029Z,1.80
2018-03-18T16:40:45.274Z,1.93
2018-03-18T16:43:15.159Z,3.10
2018-03-18T16:45:45.225Z,2.20
2018-03-18T16:48:15.154Z,1.70
2018-03-18T16:50:45.930Z,1.93
2018-03-18T16:53:15.798Z,2.30
2018-03-18T16:55:46.662Z,1.83
2018-03-18T16:58:16.551Z,1.50
2018-03-18T17:00:46.509Z,1.95
2018-03-18T17:03:16.442Z,1.60
2018-03-18T17:05:46.367Z,1.40
2018-03-18T17:08:17.728Z,2.53
2018-03-18T17:10:48.444Z,2.33
2018-03-18T17:13:18.439Z,1.73
2018-03-18T17:15:48.442Z,1.53
2018-03-18T17:18:18.155Z,1.80
2018-03-18T17:20:48.184Z,1.53
2018-03-18T17:23:18.062Z,2.37
2018-03-18T17:25:48.705Z,1.87
2018-03-18T17:28:18.469Z,2.20
2018-03-18T17:30:48.834Z,2.20
2018-03-18T17:33:18.873Z,1.50
2018-03-18T17:35:48.994Z,2.00
2018-03-18T17:38:18.927Z,2.40
2018-03-18T17:40:48.887Z,2.07
2018-03-18T17:43:18.890Z,2.50
2018-03-18T17:46:06.281Z,1.90
2018-03-18T17:48:54.070Z,2.67
2018-03-18T17:51:41.341Z,2.10
2018-03-18T17:54:29.273Z,2.60
2018-03-18T17:56:59.467Z,2.90
2018-03-18T17:59:29.481Z,2.10
2018-03-18T18:01:59.327Z,4.03
2018-03-18T18:04:30.384Z,2.30
2018-03-18T18:07:00.355Z,2.37
2018-03-18T18:09:31.327Z,1.90
2018-03-18T18:12:01.558Z,1.90
2018-03-18T18:14:31.655Z,2.33
2018-03-18T18:17:01.578Z,2.00
2018-03-18T18:19:31.656Z,2.03
2018-03-18T18:22:01.555Z,1.73
2018-03-18T18:24:32.510Z,1.87
2018-03-18T18:27:02.371Z,1.47
2018-03-18T18:29:32.420Z,2.20
2018-03-18T18:32:03.765Z,3.03
2018-03-18T18:34:35.585Z,1.90
2018-03-18T18:37:05.573Z,1.80
2018-03-18T18:39:35.683Z,2.27
2018-03-18T18:42:06.412Z,2.40
2018-03-18T18:44:37.351Z,2.00
2018-03-18T18:47:08.410Z,1.50
2018-03-18T18:49:38.428Z,2.10
2018-03-18T18:52:08.548Z,2.20
2018-03-18T18:54:39.351Z,2.27
2018-03-18T18:57:09.061Z,1.90
2018-03-18T18:59:39.832Z,2.10
2018-03-18T19:02:10.134Z,1.80
2018-03-18T19:04:40.466Z,1.80
2018-03-18T19:07:10.517Z,1.90
2018-03-18T19:09:40.502Z,1.80
2018-03-18T19:12:10.648Z,2.37
2018-03-18T19:14:41.307Z,2.20
2018-03-18T19:17:12.016Z,2.30
2018-03-18T19:19:42.002Z,2.10
2018-03-18T19:22:12.497Z,1.83
2018-03-18T19:24:43.764Z,2.23
2018-03-18T19:27:14.628Z,1.90
2018-03-18T19:29:45.419Z,2.13
2018-03-18T19:32:16.072Z,1.93
2018-03-18T19:34:46.190Z,1.97
2018-03-18T19:37:16.654Z,2.10
2018-03-18T19:39:46.498Z,2.67
2018-03-18T19:42:17.692Z,2.97
2018-03-18T19:44:47.618Z,2.80
2018-03-18T19:47:17.697Z,1.90
2018-03-18T19:49:49.274Z,1.80
2018-03-18T19:52:19.199Z,2.07
2018-03-18T19:54:49.071Z,1.67
2018-03-18T19:57:18.888Z,2.20
2018-03-18T19:59:49.671Z,1.90
2018-03-18T20:02:20.501Z,1.80
2018-03-18T20:04:54.807Z,2.40
2018-03-18T20:07:24.714Z,2.43
2018-03-18T20:09:55.661Z,1.80
2018-03-18T20:12:25.528Z,1.93
2018-03-18T20:14:56.627Z,2.60
2018-03-18T20:17:27.099Z,2.67
2018-03-18T20:19:58.283Z,2.57
2018-03-18T20:22:29.015Z,2.03
2018-03-18T20:24:58.567Z,2.40
2018-03-18T20:27:27.979Z,2.43
2018-03-18T20:29:57.921Z,2.07
2018-03-18T20:32:28.160Z,2.40
2018-03-18T20:34:58.952Z,2.10
2018-03-18T20:37:29.699Z,2.10
2018-03-18T20:40:01.070Z,2.10
2018-03-18T20:42:30.900Z,2.00
2018-03-18T20:45:00.385Z,2.17
2018-03-18T20:47:29.750Z,2.70
2018-03-18T20:49:59.245Z,2.27
2018-03-18T20:52:28.543Z,2.10
2018-03-18T20:54:57.897Z,2.20
2018-03-18T20:57:27.379Z,2.00
2018-03-18T20:59:57.650Z,3.17
2018-03-18T21:02:27.052Z,2.10
2018-03-18T21:04:58.311Z,2.87
2018-03-18T21:07:28.112Z,2.30
2018-03-18T21:09:57.448Z,2.40
2018-03-18T21:12:26.938Z,2.60
2018-03-18T21:14:56.571Z,2.50
2018-03-18T21:17:26.023Z,2.53
2018-03-18T21:19:55.534Z,1.98
2018-03-18T21:22:26.368Z,2.20
2018-03-18T21:24:55.707Z,2.10
2018-03-18T21:27:25.093Z,2.00
2018-03-18T21:29:54.650Z,2.87
2018-03-18T21:32:24.118Z,2.60
2018-03-18T21:34:53.595Z,2.30
2018-03-18T21:37:23.982Z,2.60
2018-03-18T21:39:53.398Z,2.10
2018-03-18T21:42:23.707Z,2.53
2018-03-18T21:44:53.110Z,2.43
2018-03-18T21:47:23.379Z,2.67
2018-03-18T21:49:52.794Z,2.23
2018-03-18T21:52:23.159Z,2.50
2018-03-18T21:54:52.474Z,2.53
2018-03-18T21:57:21.806Z,2.47
2018-03-18T21:59:51.211Z,2.20
2018-03-18T22:02:20.950Z,2.50
2018-03-18T22:04:51.127Z,2.40
2018-03-18T22:07:20.474Z,2.57
2018-03-18T22:09:50.626Z,2.93
2018-03-18T22:12:19.818Z,2.50
2018-03-18T22:14:50.004Z,2.33
2018-03-18T22:17:20.132Z,2.37
2018-03-18T22:19:50.318Z,2.00
2018-03-18T22:22:19.577Z,2.57
2018-03-18T22:24:48.900Z,2.70
2018-03-18T22:27:18.242Z,2.87
2018-03-18T22:29:47.374Z,2.97
2018-03-18T22:32:17.376Z,2.23
2018-03-18T22:34:46.575Z,3.00
2018-03-18T22:37:16.420Z,3.27
2018-03-18T22:39:44.917Z,2.60
2018-03-18T22:42:14.040Z,2.90
2018-03-18T22:44:43.154Z,3.60
2018-03-18T22:47:11.461Z,2.60
2018-03-18T22:49:39.747Z,2.00
2018-03-18T22:52:08.050Z,2.90
2018-03-18T22:54:36.325Z,2.70
2018-03-18T22:57:04.634Z,2.80
2018-03-18T22:59:32.915Z,2.90
2018-03-18T23:02:01.184Z,2.40
2018-03-18T23:04:29.480Z,2.77
2018-03-18T23:06:57.764Z,3.10
2018-03-18T23:09:26.058Z,2.93
2018-03-18T23:11:54.336Z,3.17
2018-03-18T23:14:22.623Z,2.80
2018-03-18T23:16:50.888Z,2.80
2018-03-18T23:19:19.174Z,2.73
2018-03-18T23:21:47.439Z,2.83
2018-03-18T23:24:15.719Z,3.03
2018-03-18T23:26:44.000Z,2.50
2018-03-18T23:29:12.265Z,3.00
2018-03-18T23:31:40.528Z,3.43
2018-03-18T23:34:08.820Z,2.97
2018-03-18T23:36:37.096Z,2.20
2018-03-18T23:39:05.398Z,2.80
2018-03-18T23:41:33.685Z,2.70
2018-03-18T23:44:02.725Z,3.10
2018-03-18T23:46:30.994Z,3.13
2018-03-18T23:48:59.274Z,2.33
2018-03-18T23:51:27.572Z,3.37
2018-03-18T23:53:55.835Z,3.60
2018-03-18T23:56:24.116Z,3.10
2018-03-18T23:58:52.372Z,3.20
